Time;durP1;ratioP1;P1;durP2;ratioP2;P2;SDS_P1;SDS_P2;PMS_P1;PMS_P2;Temp;Humidity;BMP_temperature;BMP_pressure;BME280_temperature;BME280_humidity;BME280_pressure;Samples;Min_cycle;Max_cycle;Signal;HPM_P1;HPM_P2
2023/07/02 00:01:09;;;;;;;19.70;6.13;;;17.70;99.90;;;;;;5071386;28;20032;-66
2023/07/02 00:03:38;;;;;;;21.52;6.53;;;17.60;99.90;;;;;;5071322;28;20029;-66
2023/07/02 00:06:03;;;;;;;24.20;6.75;;;17.60;99.90;;;;;;5070902;28;20082;-66
2023/07/02 00:08:29;;;;;;;24.77;6.78;;;17.50;99.90;;;;;;5070464;28;20033;-67
2023/07/02 00:10:54;;;;;;;21.33;6.80;;;17.50;99.90;;;;;;5071635;28;20044;-66
2023/07/02 00:13:20;;;;;;;20.30;6.28;;;17.40;99.90;;;;;;5071986;28;20115;-67
2023/07/02 00:15:45;;;;;;;22.10;6.88;;;17.30;99.90;;;;;;5069293;28;20060;-67
2023/07/02 00:18:16;;;;;;;20.83;6.80;;;17.20;99.90;;;;;;5071478;28;20076;-65
2023/07/02 00:20:42;;;;;;;20.13;6.90;;;17.20;99.90;;;;;;5071498;28;20028;-67
2023/07/02 00:23:11;;;;;;;19.75;6.53;;;17.10;99.90;;;;;;5071759;28;20078;-67
2023/07/02 00:25:36;;;;;;;21.40;7.15;;;17.00;99.90;;;;;;5070143;28;20056;-67
2023/07/02 00:28:03;;;;;;;22.13;6.80;;;17.00;99.90;;;;;;5071403;28;20020;-68
2023/07/02 00:30:29;;;;;;;21.10;6.95;;;16.90;99.90;;;;;;5070859;28;20058;-66
2023/07/02 00:32:54;;;;;;;23.25;7.20;;;16.90;99.90;;;;;;5071024;28;20036;-67
2023/07/02 00:35:20;;;;;;;23.33;7.22;;;16.80;99.90;;;;;;5071594;28;20031;-68
2023/07/02 00:37:45;;;;;;;28.90;7.80;;;16.80;99.90;;;;;;5071105;28;20053;-68
2023/07/02 00:40:11;;;;;;;20.10;7.18;;;16.70;99.90;;;;;;5073027;28;20422;-67
2023/07/02 00:42:37;;;;;;;28.45;7.63;;;16.70;99.90;;;;;;5074674;28;20039;-67
2023/07/02 00:45:03;;;;;;;19.15;6.68;;;16.70;99.90;;;;;;5074700;28;20044;-66
2023/07/02 00:47:35;;;;;;;25.30;7.03;;;16.60;99.90;;;;;;5074834;28;20033;-67
2023/07/02 00:50:01;;;;;;;;;;;16.60;99.90;;;;;;5075051;28;20067;-67
2023/07/02 00:52:27;;;;;;;26.05;7.57;;;16.60;99.90;;;;;;5074413;28;19956;-66
2023/07/02 00:54:52;;;;;;;23.48;6.88;;;16.50;99.90;;;;;;5071971;28;20115;-66
2023/07/02 00:57:19;;;;;;;22.23;6.85;;;16.50;99.90;;;;;;5069807;28;20025;-67
2023/07/02 00:59:44;;;;;;;24.13;6.88;;;16.50;99.90;;;;;;5071475;28;20032;-67
2023/07/02 01:02:10;;;;;;;21.33;6.65;;;16.50;99.90;;;;;;5071767;28;20025;-66
2023/07/02 01:04:37;;;;;;;22.50;7.07;;;16.40;99.90;;;;;;5071046;28;20038;-67
2023/07/02 01:07:08;;;;;;;20.35;6.88;;;16.40;99.90;;;;;;5071344;28;20516;-67
2023/07/02 01:09:34;;;;;;;24.45;6.65;;;16.40;99.90;;;;;;5070991;28;20028;-66
2023/07/02 01:12:07;;;;;;;21.15;7.13;;;16.30;99.90;;;;;;5070844;28;20048;-67
2023/07/02 01:14:43;;;;;;;19.65;6.40;;;16.30;99.90;;;;;;5071503;28;20371;-67
2023/07/02 01:17:09;;;;;;;21.77;6.90;;;16.30;99.90;;;;;;5071474;28;20029;-68
2023/07/02 01:19:52;;;;;;;24.17;7.15;;;16.30;99.90;;;;;;5071411;28;20460;-68
2023/07/02 01:22:20;;;;;;;22.33;7.43;;;16.20;99.90;;;;;;5071179;28;20195;-67
2023/07/02 01:24:47;;;;;;;28.15;6.90;;;16.30;99.90;;;;;;5070974;28;20482;-67
2023/07/02 01:27:14;;;;;;;28.38;7.22;;;16.20;99.90;;;;;;5071292;28;20031;-66
2023/07/02 01:29:40;;;;;;;17.75;6.45;;;16.20;99.90;;;;;;5070877;28;20036;-67
2023/07/02 01:32:06;;;;;;;23.92;6.93;;;16.20;99.90;;;;;;5071026;28;20054;-67
2023/07/02 01:34:32;;;;;;;24.33;7.43;;;16.20;99.90;;;;;;5071143;28;20146;-67
2023/07/02 01:36:58;;;;;;;24.48;6.82;;;16.20;99.90;;;;;;5070655;28;20079;-66
2023/07/02 01:39:23;;;;;;;25.48;8.13;;;16.20;99.90;;;;;;5070793;28;20060;-66
2023/07/02 01:41:53;;;;;;;24.25;7.25;;;16.10;99.90;;;;;;5070815;28;20047;-67
2023/07/02 01:44:20;;;;;;;20.73;7.07;;;16.10;99.90;;;;;;5070530;28;20075;-67
2023/07/02 01:46:49;;;;;;;19.08;6.80;;;16.10;99.90;;;;;;5070349;28;20041;-67
2023/07/02 01:49:20;;;;;;;26.50;7.60;;;16.00;99.90;;;;;;5070477;28;20035;-68
2023/07/02 01:51:50;;;;;;;26.10;7.15;;;16.00;99.90;;;;;;5070261;28;20032;-67
2023/07/02 01:54:16;;;;;;;27.75;7.45;;;16.00;99.90;;;;;;5070662;28;20037;-65
2023/07/02 01:56:41;;;;;;;22.85;7.13;;;16.00;99.90;;;;;;5070577;28;20421;-66
2023/07/02 01:59:07;;;;;;;25.13;7.63;;;16.00;99.90;;;;;;5068933;28;20028;-66
2023/07/02 02:01:32;;;;;;;26.58;7.97;;;16.00;99.90;;;;;;5070101;28;20028;-67
2023/07/02 02:03:58;;;;;;;22.35;7.63;;;15.90;99.90;;;;;;5069799;28;20035;-66
2023/07/02 02:06:24;;;;;;;27.35;7.10;;;15.90;99.90;;;;;;5070030;28;20052;-67
2023/07/02 02:08:49;;;;;;;28.60;7.85;;;15.90;99.90;;;;;;5070174;28;20036;-67
2023/07/02 02:11:15;;;;;;;26.48;7.55;;;15.90;99.90;;;;;;5070397;28;20445;-68
2023/07/02 02:13:41;;;;;;;19.90;7.75;;;15.90;99.90;;;;;;5070250;28;20377;-66
2023/07/02 02:16:06;;;;;;;26.52;7.82;;;15.80;99.90;;;;;;5070304;28;20108;-67
2023/07/02 02:18:32;;;;;;;22.08;8.18;;;15.80;99.90;;;;;;5069966;28;20077;-66
2023/07/02 02:20:58;;;;;;;27.88;7.72;;;15.80;99.90;;;;;;5070252;28;20028;-67
2023/07/02 02:23:23;;;;;;;28.27;7.85;;;15.80;99.90;;;;;;5070483;28;20038;-67
2023/07/02 02:25:49;;;;;;;22.92;7.88;;;15.80;99.90;;;;;;5070019;28;20366;-67
2023/07/02 02:28:14;;;;;;;24.52;7.63;;;15.80;99.90;;;;;;5070238;28;20040;-67
2023/07/02 02:30:40;;;;;;;27.27;7.22;;;15.70;99.90;;;;;;5070156;28;20473;-67
2023/07/02 02:33:05;;;;;;;25.42;7.82;;;15.70;99.90;;;;;;5069540;28;20039;-67
2023/07/02 02:35:31;;;;;;;25.40;7.82;;;15.70;99.90;;;;;;5069705;28;20028;-67
2023/07/02 02:37:56;;;;;;;29.42;8.52;;;15.70;99.90;;;;;;5069301;28;20051;-66
2023/07/02 02:40:22;;;;;;;26.05;8.13;;;15.70;99.90;;;;;;5069387;28;20043;-67
2023/07/02 02:42:47;;;;;;;22.48;7.35;;;15.70;99.90;;;;;;5069660;28;20045;-67
2023/07/02 02:45:13;;;;;;;25.80;8.15;;;15.70;99.90;;;;;;5069416;28;20135;-66
2023/07/02 02:47:39;;;;;;;23.55;7.78;;;15.70;99.90;;;;;;5069441;28;20060;-67
2023/07/02 02:50:06;;;;;;;25.45;7.93;;;15.70;99.90;;;;;;5069480;28;20035;-66
2023/07/02 02:52:31;;;;;;;21.23;6.72;;;15.60;99.90;;;;;;5068655;28;20119;-66
2023/07/02 02:54:57;;;;;;;22.58;6.90;;;15.60;99.90;;;;;;5069372;28;20420;-66
2023/07/02 02:57:22;;;;;;;24.73;7.28;;;15.70;99.90;;;;;;5069279;28;20481;-67
2023/07/02 02:59:48;;;;;;;22.42;7.47;;;15.60;99.90;;;;;;5069659;28;20032;-66
2023/07/02 03:02:13;;;;;;;26.65;7.10;;;15.70;99.90;;;;;;5069071;28;20388;-66
2023/07/02 03:04:41;;;;;;;25.02;7.88;;;15.60;99.90;;;;;;5071987;28;20044;-67
2023/07/02 03:07:07;;;;;;;23.65;7.35;;;15.60;99.90;;;;;;5071931;28;20047;-67
2023/07/02 03:09:33;;;;;;;24.40;7.97;;;15.60;99.90;;;;;;5069431;28;20031;-67
2023/07/02 03:11:59;;;;;;;23.50;7.18;;;15.60;99.90;;;;;;5072035;28;20452;-67
2023/07/02 03:14:24;;;;;;;24.48;7.30;;;15.60;99.90;;;;;;5072454;28;20032;-67
2023/07/02 03:16:50;;;;;;;28.25;8.25;;;15.60;99.90;;;;;;5071784;28;20074;-67
2023/07/02 03:19:16;;;;;;;25.58;7.25;;;15.60;99.90;;;;;;5072193;28;20395;-67
2023/07/02 03:21:43;;;;;;;26.15;7.53;;;15.60;99.90;;;;;;5072126;28;20032;-67
2023/07/02 03:24:11;;;;;;;27.60;7.55;;;15.60;99.90;;;;;;5071990;28;20112;-67
2023/07/02 03:26:37;;;;;;;28.15;8.27;;;15.60;99.90;;;;;;5072035;28;20036;-67
2023/07/02 03:29:02;;;;;;;26.02;7.65;;;15.60;99.90;;;;;;5070237;28;20034;-67
2023/07/02 03:31:28;;;;;;;23.75;7.20;;;15.50;99.90;;;;;;5071057;28;20028;-65
2023/07/02 03:33:53;;;;;;;24.95;7.18;;;15.50;99.90;;;;;;5071860;28;20086;-67
2023/07/02 03:36:19;;;;;;;27.13;7.20;;;15.50;99.90;;;;;;5071852;28;20107;-67
2023/07/02 03:38:44;;;;;;;30.58;8.48;;;15.50;99.90;;;;;;5071673;28;20464;-66
2023/07/02 03:41:10;;;;;;;25.65;7.45;;;15.50;99.90;;;;;;5071959;28;20047;-67
2023/07/02 03:43:36;;;;;;;25.70;7.90;;;15.50;99.90;;;;;;5071674;28;20024;-67
2023/07/02 03:46:01;;;;;;;28.10;7.82;;;15.40;99.90;;;;;;5071226;28;20032;-67
2023/07/02 03:48:27;;;;;;;27.40;7.28;;;15.40;99.90;;;;;;5071686;28;20029;-67
2023/07/02 03:50:52;;;;;;;26.52;7.35;;;15.40;99.90;;;;;;5071810;28;20029;-67
2023/07/02 03:53:18;;;;;;;23.02;7.45;;;15.40;99.90;;;;;;5071885;28;20060;-67
2023/07/02 03:55:43;;;;;;;25.00;7.22;;;15.40;99.90;;;;;;5071586;28;20029;-67
2023/07/02 03:58:09;;;;;;;28.35;7.40;;;15.40;99.90;;;;;;5071564;28;20028;-67
2023/07/02 04:00:34;;;;;;;29.45;7.50;;;15.40;99.90;;;;;;5071481;28;20043;-68
2023/07/02 04:03:00;;;;;;;24.67;7.30;;;15.50;99.90;;;;;;5071591;28;20081;-67
2023/07/02 04:05:25;;;;;;;20.10;6.72;;;15.50;99.90;;;;;;5071791;28;20496;-66
2023/07/02 04:07:51;;;;;;;23.20;6.57;;;15.50;99.90;;;;;;5071664;28;20052;-68
2023/07/02 04:10:16;;;;;;;23.10;7.07;;;15.50;99.90;;;;;;5071332;28;20035;-68
2023/07/02 04:12:42;;;;;;;22.58;6.82;;;15.60;99.90;;;;;;5071559;28;20031;-67
2023/07/02 04:15:08;;;;;;;25.25;7.15;;;15.60;99.90;;;;;;5074350;28;20032;-66
2023/07/02 04:17:34;;;;;;;24.20;6.82;;;15.70;99.90;;;;;;5075519;28;20033;-68
2023/07/02 04:20:02;;;;;;;21.40;6.75;;;15.70;99.90;;;;;;5075960;28;20346;-66
2023/07/02 04:22:28;;;;;;;22.83;6.72;;;15.70;99.90;;;;;;5075655;28;20082;-67
2023/07/02 04:24:53;;;;;;;25.65;7.60;;;15.70;99.90;;;;;;5075239;28;20028;-66
2023/07/02 04:27:19;;;;;;;22.52;7.50;;;15.70;99.90;;;;;;5076067;28;20033;-68
2023/07/02 04:29:45;;;;;;;22.50;6.25;;;15.80;99.90;;;;;;5075438;28;20355;-68
2023/07/02 04:32:10;;;;;;;23.80;6.78;;;15.80;99.90;;;;;;5075146;28;20028;-66
2023/07/02 04:34:36;;;;;;;18.13;5.65;;;15.90;99.90;;;;;;5074844;28;20058;-68
2023/07/02 04:37:05;;;;;;;21.48;6.07;;;15.90;99.90;;;;;;5075453;28;20065;-66
2023/07/02 04:39:31;;;;;;;24.20;6.18;;;16.00;99.90;;;;;;5074786;28;20052;-66
2023/07/02 04:41:57;;;;;;;17.70;5.88;;;16.00;99.90;;;;;;5075283;28;20035;-67
2023/07/02 04:44:28;;;;;;;27.52;6.50;;;16.00;99.90;;;;;;5073272;28;20464;-66
2023/07/02 04:46:56;;;;;;;21.33;5.95;;;16.10;99.90;;;;;;5074761;28;20507;-67
2023/07/02 04:49:22;;;;;;;21.77;6.30;;;16.20;99.90;;;;;;5080789;28;20028;-67
2023/07/02 04:51:47;;;;;;;23.60;5.82;;;16.20;99.90;;;;;;5088707;28;20150;-67
2023/07/02 04:54:13;;;;;;;18.75;5.75;;;16.30;99.90;;;;;;5084938;28;20121;-67
2023/07/02 04:56:38;;;;;;;22.83;6.10;;;16.30;99.90;;;;;;5084542;28;20039;-67
2023/07/02 04:59:04;;;;;;;20.77;6.25;;;16.40;99.90;;;;;;5079158;28;20035;-67
2023/07/02 05:01:29;;;;;;;20.25;5.57;;;16.50;99.90;;;;;;5091100;28;20029;-67
2023/07/02 05:03:55;;;;;;;22.48;5.18;;;16.50;99.90;;;;;;5082130;28;20036;-67
2023/07/02 05:06:20;;;;;;;20.70;5.53;;;16.60;99.90;;;;;;5083743;28;20036;-67
2023/07/02 05:08:46;;;;;;;20.83;5.55;;;16.60;99.90;;;;;;5088106;28;20151;-66
2023/07/02 05:11:11;;;;;;;21.33;5.32;;;16.80;99.90;;;;;;5077137;28;20025;-66
2023/07/02 05:13:37;;;;;;;21.92;5.65;;;16.90;99.90;;;;;;5079313;28;20038;-68
2023/07/02 05:16:02;;;;;;;19.20;5.28;;;16.90;99.90;;;;;;5086252;28;20054;-67
2023/07/02 05:18:28;;;;;;;22.50;5.80;;;17.00;99.90;;;;;;5086747;28;20060;-68
2023/07/02 05:20:54;;;;;;;18.65;6.10;;;17.00;99.90;;;;;;5077955;28;20482;-67
2023/07/02 05:23:19;;;;;;;22.55;5.68;;;17.00;99.90;;;;;;5087439;28;20020;-68
2023/07/02 05:25:45;;;;;;;20.10;5.90;;;17.10;99.90;;;;;;5075427;28;20044;-68
2023/07/02 05:28:11;;;;;;;18.08;5.20;;;17.00;99.90;;;;;;5084724;28;20048;-66
2023/07/02 05:30:36;;;;;;;22.10;6.38;;;17.10;99.90;;;;;;5080760;28;20060;-67
2023/07/02 05:33:02;;;;;;;19.90;5.38;;;17.20;99.90;;;;;;5091162;28;20063;-67
2023/07/02 05:35:28;;;;;;;19.85;5.68;;;17.20;99.90;;;;;;5077755;28;20035;-67
2023/07/02 05:37:53;;;;;;;16.60;4.75;;;17.20;99.90;;;;;;5086910;28;20127;-67
2023/07/02 05:40:19;;;;;;;21.83;5.55;;;17.20;99.90;;;;;;5084756;28;20020;-68
2023/07/02 05:42:45;;;;;;;21.65;5.55;;;17.20;99.90;;;;;;5080149;28;20025;-67
2023/07/02 05:45:10;;;;;;;21.58;6.22;;;17.40;99.90;;;;;;5090538;28;20061;-67
2023/07/02 05:47:36;;;;;;;20.45;5.47;;;17.60;99.90;;;;;;5078787;28;20028;-66
2023/07/02 05:50:01;;;;;;;23.90;5.53;;;17.90;99.90;;;;;;5085971;28;20387;-66
2023/07/02 05:52:27;;;;;;;16.52;4.93;;;18.00;99.90;;;;;;5075426;28;20071;-66
2023/07/02 05:54:53;;;;;;;22.02;6.10;;;18.20;99.90;;;;;;5079312;28;20021;-67
2023/07/02 05:57:18;;;;;;;16.27;4.68;;;18.30;99.90;;;;;;5077687;28;20452;-68
2023/07/02 05:59:44;;;;;;;19.83;5.45;;;18.60;99.90;;;;;;5087990;28;20487;-67
2023/07/02 06:02:09;;;;;;;18.30;4.82;;;19.40;99.90;;;;;;5082695;28;20032;-66
2023/07/02 06:04:35;;;;;;;18.00;5.00;;;20.20;99.90;;;;;;5080718;28;20036;-67
2023/07/02 06:07:00;;;;;;;18.02;5.05;;;20.40;99.90;;;;;;5090118;28;20024;-67
2023/07/02 06:09:27;;;;;;;21.05;5.10;;;20.60;99.90;;;;;;5072879;28;20038;-68
2023/07/02 06:11:53;;;;;;;18.60;5.28;;;20.70;99.90;;;;;;5076174;28;20021;-67
2023/07/02 06:14:18;;;;;;;17.65;4.75;;;20.80;99.90;;;;;;5084132;28;20511;-67
2023/07/02 06:16:44;;;;;;;16.95;4.93;;;21.50;99.90;;;;;;5079631;28;20480;-67
2023/07/02 06:19:09;;;;;;;16.20;4.88;;;22.00;99.90;;;;;;5090219;28;20032;-68
2023/07/02 06:21:36;;;;;;;18.92;5.03;;;21.90;99.30;;;;;;5077918;28;20061;-67
2023/07/02 06:24:02;;;;;;;15.60;5.20;;;21.80;99.40;;;;;;5084893;28;20039;-66
2023/07/02 06:26:27;;;;;;;18.40;5.38;;;21.70;99.40;;;;;;5075355;28;20115;-66
2023/07/02 06:28:53;;;;;;;15.23;4.80;;;21.30;99.90;;;;;;5088635;28;20023;-67
2023/07/02 06:31:18;;;;;;;16.88;5.07;;;21.20;99.90;;;;;;5076267;28;20070;-67
2023/07/02 06:33:44;;;;;;;20.20;4.78;;;21.10;99.90;;;;;;5087346;28;20408;-68
2023/07/02 06:36:10;;;;;;;16.27;4.30;;;21.80;99.60;;;;;;5082481;28;20056;-66
2023/07/02 06:38:36;;;;;;;16.60;4.47;;;22.50;98.30;;;;;;5079453;28;20056;-67
2023/07/02 06:41:01;;;;;;;15.27;5.32;;;23.00;97.30;;;;;;5076385;28;20357;-67
2023/07/02 06:43:27;;;;;;;15.93;4.63;;;23.60;96.40;;;;;;5077613;28;20032;-68
2023/07/02 06:45:53;;;;;;;14.43;5.05;;;24.00;95.70;;;;;;5085709;28;20032;-68
2023/07/02 06:48:21;;;;;;;15.30;4.95;;;24.50;95.50;;;;;;5083282;28;20032;-67
2023/07/02 06:50:46;;;;;;;16.25;5.13;;;24.80;95.20;;;;;;5078480;28;20033;-68
2023/07/02 06:53:12;;;;;;;20.00;5.15;;;25.30;94.80;;;;;;5089125;28;20028;-67
2023/07/02 06:55:38;;;;;;;16.55;4.95;;;25.40;94.10;;;;;;5077327;28;20373;-67
2023/07/02 06:58:06;;;;;;;16.30;5.05;;;25.80;93.90;;;;;;5084003;28;20017;-67
2023/07/02 07:00:35;;;;;;;12.80;4.90;;;26.20;93.40;;;;;;5085159;28;20052;-68
2023/07/02 07:03:04;;;;;;;15.15;5.30;;;26.50;92.80;;;;;;5076408;28;20028;-67
2023/07/02 07:05:31;;;;;;;14.85;4.75;;;26.80;92.20;;;;;;5060056;28;20070;-67
2023/07/02 07:07:57;;;;;;;14.80;4.97;;;26.90;92.10;;;;;;5085413;28;20117;-67
2023/07/02 07:10:23;;;;;;;15.32;5.28;;;27.20;91.80;;;;;;5072594;28;20028;-67
2023/07/02 07:12:48;;;;;;;16.60;4.90;;;27.00;91.50;;;;;;5072621;28;20029;-66
2023/07/02 07:15:14;;;;;;;16.02;5.22;;;26.10;92.20;;;;;;5072523;28;20115;-68
2023/07/02 07:17:39;;;;;;;13.27;5.25;;;25.40;92.90;;;;;;5072812;28;20040;-67
2023/07/02 07:20:05;;;;;;;18.75;6.10;;;25.40;93.00;;;;;;5072272;28;20029;-66
2023/07/02 07:22:31;;;;;;;16.45;4.68;;;25.60;92.80;;;;;;5072507;28;20112;-68
2023/07/02 07:24:56;;;;;;;16.08;5.70;;;25.90;92.30;;;;;;5072205;28;20043;-66
2023/07/02 07:27:22;;;;;;;18.10;4.85;;;26.10;92.10;;;;;;5072409;28;20056;-67
2023/07/02 07:29:47;;;;;;;19.58;5.43;;;26.00;92.10;;;;;;5072621;28;20070;-66
2023/07/02 07:32:13;;;;;;;20.75;5.43;;;25.90;92.20;;;;;;5072707;28;20028;-68
2023/07/02 07:34:39;;;;;;;15.30;4.75;;;25.90;92.20;;;;;;5072620;28;20040;-67
2023/07/02 07:37:05;;;;;;;12.25;4.50;;;26.30;91.80;;;;;;5072463;28;20464;-67
2023/07/02 07:39:30;;;;;;;15.63;4.80;;;26.80;91.70;;;;;;5071998;28;20049;-67
2023/07/02 07:41:56;;;;;;;16.38;4.65;;;27.40;91.20;;;;;;5072209;28;20040;-67
2023/07/02 07:44:21;;;;;;;16.23;5.30;;;27.80;90.60;;;;;;5072035;28;20052;-68
2023/07/02 07:46:47;;;;;;;15.93;5.35;;;27.40;90.70;;;;;;5072265;28;20033;-67
2023/07/02 07:49:13;;;;;;;18.33;5.32;;;27.10;91.20;;;;;;5075811;28;20139;-67
2023/07/02 07:51:38;;;;;;;13.68;4.78;;;26.40;91.70;;;;;;5078436;28;20028;-68
2023/07/02 07:54:04;;;;;;;14.63;4.05;;;26.30;91.70;;;;;;5078453;28;20033;-67
2023/07/02 07:56:30;;;;;;;16.70;4.45;;;26.40;91.40;;;;;;5078802;28;20028;-67
2023/07/02 07:58:55;;;;;;;19.40;4.53;;;25.70;91.60;;;;;;5078782;28;20112;-68
2023/07/02 08:01:21;;;;;;;14.38;4.53;;;25.00;92.30;;;;;;5078644;28;20031;-66
2023/07/02 08:03:46;;;;;;;17.02;4.93;;;24.60;93.30;;;;;;5078401;28;20100;-68
2023/07/02 08:06:12;;;;;;;17.55;5.20;;;24.40;93.50;;;;;;5078728;28;20067;-68
2023/07/02 08:08:37;;;;;;;16.73;4.68;;;24.10;93.50;;;;;;5078591;28;20036;-68
2023/07/02 08:11:03;;;;;;;19.08;4.78;;;23.90;93.70;;;;;;5078300;28;20028;-67
2023/07/02 08:13:29;;;;;;;17.73;5.25;;;23.60;94.00;;;;;;5078543;28;20024;-67
2023/07/02 08:15:54;;;;;;;13.57;4.38;;;23.60;94.80;;;;;;5078551;28;20337;-67
2023/07/02 08:18:20;;;;;;;18.27;4.63;;;23.90;94.00;;;;;;5078434;28;20384;-67
2023/07/02 08:20:45;;;;;;;17.52;4.68;;;24.10;93.90;;;;;;5078671;28;20457;-66
2023/07/02 08:23:11;;;;;;;17.95;5.15;;;24.40;93.80;;;;;;5078278;28;20349;-66
2023/07/02 08:25:37;;;;;;;15.15;4.78;;;24.70;93.20;;;;;;5078525;28;20072;-68
2023/07/02 08:28:03;;;;;;;16.48;4.38;;;24.70;92.70;;;;;;5077273;28;20078;-66
2023/07/02 08:30:28;;;;;;;13.57;4.43;;;24.90;92.60;;;;;;5077208;28;20453;-67
2023/07/02 08:32:55;;;;;;;20.23;4.93;;;25.60;92.60;;;;;;5078445;28;20029;-66
2023/07/02 08:35:20;;;;;;;16.55;4.38;;;26.40;91.70;;;;;;5078238;28;20021;-67
2023/07/02 08:37:46;;;;;;;12.35;4.25;;;27.10;90.80;;;;;;5077822;28;20181;-68
2023/07/02 08:40:19;;;;;;;13.18;4.70;;;27.60;90.20;;;;;;5078496;28;20056;-67
2023/07/02 08:42:47;;;;;;;12.45;4.57;;;27.80;89.20;;;;;;5078160;28;20495;-67
2023/07/02 08:45:16;;;;;;;15.13;4.30;;;27.80;89.50;;;;;;5078017;28;20082;-67
2023/07/02 08:47:43;;;;;;;13.48;4.32;;;28.10;88.80;;;;;;5078268;28;20035;-67
2023/07/02 08:50:09;;;;;;;21.58;4.78;;;28.10;88.60;;;;;;5077632;28;20033;-66
2023/07/02 08:52:35;;;;;;;16.15;4.72;;;27.80;88.30;;;;;;5077593;28;20104;-67
2023/07/02 08:55:00;;;;;;;14.23;4.18;;;27.70;88.50;;;;;;5076962;28;20029;-66
2023/07/02 08:57:26;;;;;;;17.05;4.55;;;27.80;87.60;;;;;;5078314;28;20048;-68
2023/07/02 08:59:51;;;;;;;14.27;3.92;;;28.20;87.20;;;;;;5077077;28;20028;-69
2023/07/02 09:02:17;;;;;;;13.27;3.70;;;28.70;85.60;;;;;;5074801;28;20035;-68
2023/07/02 09:04:43;;;;;;;13.73;3.85;;;28.80;85.30;;;;;;5075052;28;20032;-66
2023/07/02 09:07:10;;;;;;;15.05;4.20;;;29.10;85.40;;;;;;5074848;28;20051;-67
2023/07/02 09:09:49;;;;;;;13.35;4.00;;;28.70;85.50;;;;;;5074709;28;20035;-66
2023/07/02 09:12:28;;;;;;;14.27;4.30;;;28.10;86.60;;;;;;5074712;28;20037;-67
2023/07/02 09:14:57;;;;;;;11.82;3.80;;;28.30;86.80;;;;;;5074955;28;20024;-67
2023/07/02 09:17:31;;;;;;;18.15;4.15;;;28.00;86.90;;;;;;5074902;28;20044;-68
2023/07/02 09:20:00;;;;;;;12.85;3.45;;;27.40;87.50;;;;;;5074523;28;20086;-67
2023/07/02 09:22:26;;;;;;;14.00;3.70;;;26.60;88.70;;;;;;5074429;28;20421;-68
2023/07/02 09:24:57;;;;;;;15.82;4.20;;;26.30;89.80;;;;;;5074179;28;20063;-67
2023/07/02 09:27:37;;;;;;;15.70;4.00;;;26.70;89.80;;;;;;5074666;28;20465;-67
2023/07/02 09:30:20;;;;;;;15.57;4.53;;;27.50;87.60;;;;;;5072642;28;20433;-68
2023/07/02 09:32:46;;;;;;;12.98;3.75;;;28.00;87.40;;;;;;5056226;28;20028;-66
2023/07/02 09:35:12;;;;;;;11.75;4.07;;;28.70;86.60;;;;;;5074189;28;20518;-67
2023/07/02 09:37:41;;;;;;;15.63;4.07;;;29.30;84.90;;;;;;5074213;28;20056;-66
2023/07/02 09:40:08;;;;;;;16.67;4.13;;;29.90;83.60;;;;;;5074031;28;20469;-68
2023/07/02 09:42:35;;;;;;;14.60;4.18;;;30.30;82.60;;;;;;5074208;28;20028;-66
2023/07/02 09:45:02;;;;;;;12.85;4.20;;;30.50;82.10;;;;;;5074256;28;20040;-67
2023/07/02 09:47:29;;;;;;;17.05;4.50;;;30.30;82.60;;;;;;5074259;28;20033;-66
2023/07/02 09:49:59;;;;;;;12.27;4.10;;;30.50;82.00;;;;;;5073611;28;20485;-67
2023/07/02 09:52:27;;;;;;;15.05;4.22;;;30.90;80.90;;;;;;5073951;28;20060;-67
2023/07/02 09:54:53;;;;;;;17.45;4.53;;;30.70;80.90;;;;;;5072867;28;20028;-68
2023/07/02 09:57:19;;;;;;;11.45;3.85;;;30.60;81.00;;;;;;5073887;28;20023;-67
2023/07/02 09:59:44;;;;;;;12.20;4.00;;;30.70;80.40;;;;;;5073523;28;20020;-66
2023/07/02 10:02:12;;;;;;;14.48;4.03;;;31.00;80.40;;;;;;5073835;28;20472;-67
2023/07/02 10:04:45;;;;;;;11.43;4.03;;;31.70;79.40;;;;;;5073825;28;20074;-67
2023/07/02 10:07:12;;;;;;;18.17;4.90;;;32.30;78.40;;;;;;5072344;28;20051;-67
2023/07/02 10:09:45;;;;;;;10.05;3.60;;;32.60;77.40;;;;;;5073795;28;20035;-67
2023/07/02 10:12:21;;;;;;;12.50;4.15;;;32.30;76.80;;;;;;5093654;28;20031;-68
2023/07/02 10:14:49;;;;;;;16.77;5.35;;;32.20;77.00;;;;;;5093909;28;20043;-67
2023/07/02 10:17:32;;;;;;;16.17;4.32;;;32.50;76.80;;;;;;5053423;28;20037;-68
2023/07/02 10:20:01;;;;;;;13.88;4.38;;;32.20;76.00;;;;;;5054590;28;20036;-68
2023/07/02 10:22:27;;;;;;;13.82;4.13;;;32.10;76.30;;;;;;5073247;28;20396;-67
2023/07/02 10:25:03;;;;;;;13.70;4.30;;;31.80;76.00;;;;;;5073447;28;20037;-68
2023/07/02 10:27:41;;;;;;;11.00;4.45;;;31.30;75.80;;;;;;5073128;28;20074;-67
2023/07/02 10:30:09;;;;;;;14.63;4.30;;;31.00;76.50;;;;;;5073225;28;20071;-67
2023/07/02 10:32:37;;;;;;;17.55;4.03;;;30.80;77.00;;;;;;5073098;28;20032;-66
2023/07/02 10:35:25;;;;;;;12.90;4.38;;;30.50;77.70;;;;;;5073184;28;20422;-67
2023/07/02 10:37:51;;;;;;;16.27;4.68;;;30.60;78.20;;;;;;5073002;28;20052;-67
2023/07/02 10:40:16;;;;;;;13.45;4.63;;;31.00;76.30;;;;;;5073021;28;20397;-67
2023/07/02 10:42:49;;;;;;;13.10;4.60;;;31.10;76.30;;;;;;5070792;28;20028;-67
2023/07/02 10:45:15;;;;;;;17.00;5.30;;;31.20;76.00;;;;;;5072933;28;20040;-66
2023/07/02 10:47:42;;;;;;;16.08;4.82;;;31.60;75.70;;;;;;5072775;28;20028;-67
2023/07/02 10:50:33;;;;;;;14.02;4.38;;;31.90;74.90;;;;;;5072220;28;20020;-68
2023/07/02 10:52:59;;;;;;;;;;;32.00;73.80;;;;;;5069179;28;20025;-66
2023/07/02 10:55:27;;;;;;;14.95;4.72;;;31.90;74.10;;;;;;5072130;28;19975;-67
2023/07/02 10:58:08;;;;;;;15.85;4.18;;;32.00;74.70;;;;;;5072070;28;20020;-68
2023/07/02 11:00:46;;;;;;;16.20;4.47;;;32.10;74.00;;;;;;5071915;28;20078;-67
2023/07/02 11:03:23;;;;;;;12.35;4.00;;;32.00;74.00;;;;;;5072146;28;20359;-66
2023/07/02 11:05:49;;;;;;;13.02;4.45;;;31.90;72.20;;;;;;5070499;28;20047;-67
2023/07/02 11:08:15;;;;;;;14.02;4.30;;;31.60;71.70;;;;;;5072185;28;20017;-67
2023/07/02 11:10:41;;;;;;;11.15;4.43;;;31.50;73.10;;;;;;5072161;28;20031;-66
2023/07/02 11:13:17;;;;;;;9.90;3.60;;;31.70;72.40;;;;;;5072552;28;20082;-67
2023/07/02 11:15:43;;;;;;;11.85;4.03;;;31.70;71.70;;;;;;5069669;28;20054;-68
2023/07/02 11:18:12;;;;;;;13.50;4.38;;;31.90;72.20;;;;;;5071842;28;20051;-68
2023/07/02 11:20:39;;;;;;;13.75;4.07;;;32.00;72.30;;;;;;5070453;28;20036;-68
2023/07/02 11:23:16;;;;;;;11.07;3.85;;;32.30;72.10;;;;;;5071574;28;20487;-66
2023/07/02 11:25:41;;;;;;;13.93;3.65;;;32.60;71.50;;;;;;5069676;28;20037;-67
2023/07/02 11:28:07;;;;;;;9.85;3.55;;;33.00;70.10;;;;;;5071958;28;20021;-67
2023/07/02 11:30:35;;;;;;;13.32;4.30;;;32.50;71.10;;;;;;5070307;28;20031;-67
2023/07/02 11:33:01;;;;;;;13.13;3.97;;;31.50;72.60;;;;;;5071707;28;20024;-66
2023/07/02 11:35:36;;;;;;;12.90;4.88;;;31.00;73.50;;;;;;5071824;28;20043;-67
2023/07/02 11:38:01;;;;;;;13.00;5.82;;;31.40;72.70;;;;;;5069343;28;20073;-66
2023/07/02 11:40:27;;;;;;;18.13;9.18;;;31.80;71.60;;;;;;5071745;28;20033;-68
2023/07/02 11:42:52;;;;;;;14.38;4.57;;;32.00;72.50;;;;;;5072096;28;20020;-67
2023/07/02 11:45:18;;;;;;;14.77;5.05;;;32.30;71.60;;;;;;5070846;28;20032;-68
2023/07/02 11:47:43;;;;;;;11.27;4.40;;;32.50;72.00;;;;;;5071559;28;20020;-67
2023/07/02 11:50:10;;;;;;;14.50;4.40;;;32.70;71.10;;;;;;5071797;28;20427;-68
2023/07/02 11:52:35;;;;;;;8.80;3.50;;;32.80;70.30;;;;;;5071578;28;20201;-67
2023/07/02 11:55:01;;;;;;;11.82;3.88;;;32.70;70.30;;;;;;5072011;28;20335;-67
2023/07/02 11:57:28;;;;;;;13.15;4.40;;;32.50;70.20;;;;;;5071980;28;20408;-67
2023/07/02 11:59:53;;;;;;;12.05;4.50;;;31.70;70.30;;;;;;5071336;28;20485;-67
2023/07/02 12:02:19;;;;;;;11.65;3.75;;;31.00;70.40;;;;;;5071774;28;20021;-67
2023/07/02 12:04:45;;;;;;;13.32;4.40;;;31.00;70.50;;;;;;5071151;28;20135;-67
2023/07/02 12:07:10;;;;;;;15.38;4.63;;;31.00;71.20;;;;;;5071581;28;20019;-67
2023/07/02 12:09:36;;;;;;;9.07;3.47;;;30.80;72.20;;;;;;5074094;28;20024;-68
2023/07/02 12:12:03;;;;;;;13.07;4.10;;;30.10;72.60;;;;;;5071665;28;20029;-67
2023/07/02 12:14:28;;;;;;;12.77;5.07;;;29.70;74.00;;;;;;5071319;28;20121;-67
2023/07/02 12:16:54;;;;;;;17.83;6.05;;;29.70;74.20;;;;;;5071376;28;20612;-66
2023/07/02 12:19:19;;;;;;;13.98;4.93;;;29.70;75.20;;;;;;5070623;28;20364;-67
2023/07/02 12:21:45;;;;;;;19.20;4.60;;;30.00;75.00;;;;;;5071341;28;20629;-67
2023/07/02 12:24:11;;;;;;;18.40;5.70;;;30.20;75.50;;;;;;5071382;28;20020;-67
2023/07/02 12:26:37;;;;;;;12.50;4.50;;;30.20;75.00;;;;;;5070147;28;20037;-67
2023/07/02 12:29:03;;;;;;;13.20;4.35;;;30.50;74.20;;;;;;5070078;28;20383;-68
2023/07/02 12:31:29;;;;;;;15.05;4.65;;;30.50;74.20;;;;;;5071283;28;20033;-67
2023/07/02 12:33:55;;;;;;;13.88;4.85;;;30.20;74.60;;;;;;5070981;28;20017;-66
2023/07/02 12:36:21;;;;;;;18.30;5.07;;;29.50;75.50;;;;;;5073153;28;20085;-67